createdAt,value
2018-08-30T00:02:21.572Z,5.60
2018-08-30T00:07:24.872Z,9.87
2018-08-30T00:12:28.234Z,7.17
2018-08-30T00:17:31.580Z,8.93
2018-08-30T00:22:34.941Z,3.77
2018-08-30T00:27:38.277Z,8.47
2018-08-30T00:32:41.673Z,7.67
2018-08-30T00:37:45.056Z,6.33
2018-08-30T00:42:48.631Z,5.30
2018-08-30T00:47:51.978Z,8.00
2018-08-30T00:52:55.302Z,5.77
2018-08-30T00:57:58.772Z,6.33
2018-08-30T01:03:02.147Z,7.30
2018-08-30T01:08:05.472Z,7.53
2018-08-30T01:13:08.962Z,9.13
2018-08-30T01:18:12.429Z,4.50
2018-08-30T01:23:15.970Z,5.10
2018-08-30T01:28:19.317Z,9.80
2018-08-30T01:33:22.627Z,7.77
2018-08-30T01:38:26.172Z,6.70
2018-08-30T01:43:29.478Z,8.63
2018-08-30T01:48:32.801Z,6.87
2018-08-30T01:53:36.185Z,7.20
2018-08-30T01:58:39.509Z,9.17
2018-08-30T02:03:42.833Z,8.37
2018-08-30T02:08:46.285Z,8.07
2018-08-30T02:13:49.589Z,5.90
2018-08-30T02:18:52.920Z,7.47
2018-08-30T02:23:56.224Z,5.53
2018-08-30T02:28:59.836Z,4.87
2018-08-30T02:34:03.165Z,7.43
2018-08-30T02:39:07.177Z,7.40
2018-08-30T02:44:10.491Z,8.60
2018-08-30T02:49:13.844Z,7.43
2018-08-30T02:54:17.259Z,6.30
2018-08-30T02:59:20.581Z,7.20
2018-08-30T03:04:23.916Z,9.00
2018-08-30T03:09:27.241Z,10.37
2018-08-30T03:14:30.548Z,8.00
2018-08-30T03:19:33.836Z,6.73
2018-08-30T03:24:37.245Z,8.00
2018-08-30T03:29:40.597Z,8.23
2018-08-30T03:34:43.966Z,8.80
2018-08-30T03:39:47.642Z,8.93
2018-08-30T03:44:50.954Z,7.97
2018-08-30T03:49:54.264Z,7.07
2018-08-30T03:54:57.711Z,7.43
2018-08-30T04:00:01.116Z,7.17
2018-08-30T04:05:04.482Z,9.80
2018-08-30T04:10:07.874Z,7.53
2018-08-30T04:15:11.198Z,5.97
2018-08-30T04:20:14.540Z,6.67
2018-08-30T04:25:17.961Z,10.20
2018-08-30T04:30:21.425Z,11.03
2018-08-30T04:35:24.847Z,9.67
2018-08-30T04:40:28.221Z,4.50
2018-08-30T04:45:31.607Z,5.47
2018-08-30T04:50:35.078Z,6.03
2018-08-30T04:55:38.032Z,5.57
2018-08-30T05:00:41.346Z,5.83
2018-08-30T05:05:44.740Z,4.87
2018-08-30T05:10:48.157Z,5.13
2018-08-30T05:15:51.628Z,8.47
2018-08-30T05:21:00.205Z,5.43
2018-08-30T05:26:03.724Z,6.87
2018-08-30T05:31:07.029Z,7.60
2018-08-30T05:36:10.418Z,5.43
2018-08-30T05:41:13.760Z,6.87
2018-08-30T05:46:17.210Z,8.77
2018-08-30T05:51:20.924Z,5.93
2018-08-30T05:56:24.345Z,8.03
2018-08-30T06:01:27.725Z,6.23
2018-08-30T06:06:31.050Z,8.23
2018-08-30T06:11:34.368Z,10.03
2018-08-30T06:16:37.809Z,9.50
2018-08-30T06:21:41.311Z,13.50
2018-08-30T06:26:44.871Z,13.07
2018-08-30T06:31:48.249Z,13.77
2018-08-30T06:36:51.976Z,12.43
2018-08-30T06:41:55.399Z,17.53
2018-08-30T06:46:58.882Z,16.70
2018-08-30T06:52:02.478Z,16.67
2018-08-30T06:57:05.970Z,17.37
2018-08-30T07:02:09.340Z,19.17
2018-08-30T07:07:12.853Z,18.13
2018-08-30T07:12:16.190Z,15.67
2018-08-30T07:17:20.777Z,19.20
2018-08-30T07:22:24.078Z,17.03
2018-08-30T07:27:27.551Z,13.20
2018-08-30T07:32:30.956Z,15.17
2018-08-30T07:37:34.273Z,16.87
2018-08-30T07:42:37.765Z,13.30
2018-08-30T07:47:41.155Z,11.37
2018-08-30T07:52:44.956Z,16.00
2018-08-30T07:57:48.453Z,11.33
2018-08-30T08:02:51.761Z,12.73
2018-08-30T08:07:55.061Z,15.13
2018-08-30T08:12:58.441Z,14.20
2018-08-30T08:18:01.799Z,10.33
2018-08-30T08:23:05.116Z,11.37
2018-08-30T08:28:08.887Z,9.20
2018-08-30T08:33:12.286Z,14.60
2018-08-30T08:38:15.781Z,7.13
2018-08-30T08:43:19.102Z,8.57
2018-08-30T08:48:22.645Z,7.70
2018-08-30T08:53:26.129Z,7.60
2018-08-30T08:58:29.648Z,6.17
2018-08-30T09:03:33.007Z,4.07
2018-08-30T09:08:36.548Z,4.47
2018-08-30T09:13:39.889Z,1.35
2018-08-30T09:18:43.201Z,3.00
2018-08-30T09:23:46.638Z,2.30
2018-08-30T09:28:49.923Z,3.70
2018-08-30T09:33:53.360Z,2.30
2018-08-30T09:38:56.764Z,2.07
2018-08-30T09:44:00.080Z,1.03
2018-08-30T09:49:03.945Z,1.27
2018-08-30T09:54:07.406Z,3.27
2018-08-30T09:59:11.097Z,0.93
2018-08-30T10:04:14.444Z,1.17
2018-08-30T10:09:17.885Z,3.80
2018-08-30T10:14:21.192Z,3.20
2018-08-30T10:19:24.503Z,4.27
2018-08-30T10:24:27.992Z,1.20
2018-08-30T10:29:31.501Z,1.97
2018-08-30T10:34:34.832Z,2.20
2018-08-30T10:39:38.225Z,1.23
2018-08-30T10:44:41.650Z,1.07
2018-08-30T10:49:44.852Z,1.77
2018-08-30T10:54:48.245Z,1.10
2018-08-30T10:59:51.625Z,1.60
2018-08-30T11:04:55.086Z,1.50
2018-08-30T11:09:58.646Z,1.50
2018-08-30T11:15:02.068Z,0.80
2018-08-30T11:20:05.626Z,1.33
2018-08-30T11:25:09.037Z,1.37
2018-08-30T11:30:12.448Z,1.53
2018-08-30T11:35:15.825Z,3.47
2018-08-30T11:40:19.137Z,1.30
2018-08-30T11:45:22.565Z,0.87
2018-08-30T11:50:25.957Z,3.10
2018-08-30T11:55:29.360Z,1.57
2018-08-30T12:00:32.732Z,0.87
2018-08-30T12:05:36.095Z,1.90
2018-08-30T12:10:39.727Z,3.33
2018-08-30T12:15:43.152Z,1.77
2018-08-30T12:20:46.540Z,2.50
2018-08-30T12:25:49.824Z,2.27
2018-08-30T12:30:53.237Z,1.87
2018-08-30T12:35:56.840Z,1.50
2018-08-30T12:41:00.089Z,2.17
2018-08-30T12:46:03.475Z,1.40
2018-08-30T12:51:06.906Z,2.40
2018-08-30T12:56:10.172Z,1.73
2018-08-30T13:01:16.923Z,1.30
2018-08-30T13:06:20.309Z,2.43
2018-08-30T13:11:24.009Z,2.93
2018-08-30T13:16:27.204Z,3.17
2018-08-30T13:21:30.763Z,2.33
2018-08-30T13:26:34.202Z,2.50
2018-08-30T13:31:37.558Z,3.40
2018-08-30T13:36:41.372Z,4.03
2018-08-30T13:41:44.339Z,6.03
2018-08-30T13:46:47.930Z,3.90
2018-08-30T13:51:51.158Z,4.43
2018-08-30T13:56:54.427Z,4.87
2018-08-30T14:01:57.826Z,4.87
2018-08-30T14:07:01.241Z,6.67
2018-08-30T14:12:04.627Z,8.33
2018-08-30T14:17:07.775Z,7.13
2018-08-30T14:22:11.100Z,6.23
2018-08-30T14:27:15.620Z,5.87
2018-08-30T14:32:18.699Z,9.10
2018-08-30T14:37:22.111Z,4.73
2018-08-30T14:42:25.456Z,7.13
2018-08-30T14:47:28.975Z,5.27
2018-08-30T14:52:32.313Z,5.87
2018-08-30T14:57:35.742Z,4.53
2018-08-30T15:02:39.041Z,6.00
2018-08-30T15:07:42.351Z,3.33
2018-08-30T15:12:46.111Z,5.65
2018-08-30T15:17:49.176Z,9.47
2018-08-30T15:22:52.714Z,7.07
2018-08-30T15:27:55.977Z,6.83
2018-08-30T15:32:59.581Z,5.63
2018-08-30T15:38:02.893Z,7.27
2018-08-30T15:43:05.969Z,7.37
2018-08-30T15:48:09.557Z,7.03
2018-08-30T15:53:12.935Z,5.90
2018-08-30T15:58:16.247Z,5.87
2018-08-30T16:03:19.924Z,4.22
2018-08-30T16:08:23.268Z,6.70
2018-08-30T16:13:26.737Z,5.57
2018-08-30T16:18:30.510Z,7.13
2018-08-30T16:23:36.025Z,7.30
2018-08-30T16:28:39.422Z,9.77
2018-08-30T16:33:42.828Z,5.60
2018-08-30T16:38:46.285Z,7.73
2018-08-30T16:43:49.701Z,5.53
2018-08-30T16:48:53.348Z,6.47
2018-08-30T16:53:56.880Z,7.23
2018-08-30T16:59:01.665Z,6.77
2018-08-30T17:04:05.100Z,7.17
2018-08-30T17:09:09.039Z,6.37
2018-08-30T17:14:12.682Z,5.23
2018-08-30T17:19:21.713Z,6.05
2018-08-30T17:24:25.186Z,8.70
2018-08-30T17:29:28.486Z,5.87
2018-08-30T17:34:31.821Z,9.27
2018-08-30T17:39:35.158Z,10.67
2018-08-30T17:44:38.769Z,5.70
2018-08-30T17:49:42.165Z,6.87
2018-08-30T17:54:45.966Z,8.93
2018-08-30T17:59:49.501Z,7.57
2018-08-30T18:04:52.957Z,8.40
2018-08-30T18:09:56.393Z,7.07
2018-08-30T18:14:59.752Z,7.70
2018-08-30T18:20:03.192Z,7.23
2018-08-30T18:25:07.117Z,8.13
2018-08-30T18:30:11.016Z,9.63
2018-08-30T18:35:14.676Z,9.67
2018-08-30T18:40:17.926Z,6.50
2018-08-30T18:45:22.161Z,11.13
2018-08-30T18:50:26.132Z,7.63
2018-08-30T18:55:29.636Z,7.17
2018-08-30T19:00:33.834Z,9.27
2018-08-30T19:05:37.657Z,9.57
2018-08-30T19:10:41.781Z,9.83
2018-08-30T19:15:50.569Z,8.57
2018-08-30T19:20:54.083Z,8.80
2018-08-30T19:25:57.695Z,7.40
2018-08-30T19:31:01.577Z,9.43
2018-08-30T19:36:10.467Z,7.10
2018-08-30T19:41:21.102Z,7.73
2018-08-30T19:46:24.709Z,7.73
2018-08-30T19:51:28.329Z,5.80
2018-08-30T19:56:31.913Z,7.07
2018-08-30T20:01:35.582Z,8.73
2018-08-30T20:06:39.115Z,9.33
2018-08-30T20:11:42.570Z,8.60
2018-08-30T20:16:46.012Z,10.47
2018-08-30T20:21:49.354Z,9.63
2018-08-30T20:26:52.677Z,10.13
2018-08-30T20:31:56.156Z,9.10
2018-08-30T20:36:59.796Z,10.20
2018-08-30T20:42:03.468Z,9.60
2018-08-30T20:47:06.812Z,8.93
2018-08-30T20:52:09.864Z,9.07
2018-08-30T20:57:13.521Z,10.67
2018-08-30T21:02:16.860Z,8.93
2018-08-30T21:07:20.229Z,9.30
2018-08-30T21:12:23.620Z,12.83
2018-08-30T21:17:27.017Z,8.80
2018-08-30T21:22:30.481Z,7.53
2018-08-30T21:27:33.782Z,9.35
2018-08-30T21:32:37.200Z,9.87
2018-08-30T21:37:40.509Z,9.80
2018-08-30T21:42:43.913Z,6.95
2018-08-30T21:47:47.253Z,8.73
2018-08-30T21:52:50.611Z,11.97
2018-08-30T21:57:54.057Z,14.23
2018-08-30T22:02:57.380Z,12.10
2018-08-30T22:08:00.854Z,10.07
2018-08-30T22:13:04.469Z,8.43
2018-08-30T22:18:07.580Z,10.37
2018-08-30T22:23:10.948Z,9.57
2018-08-30T22:28:14.633Z,9.87
2018-08-30T22:33:18.027Z,10.47
2018-08-30T22:38:22.245Z,10.18
2018-08-30T22:43:25.617Z,10.63
2018-08-30T22:48:29.002Z,8.23
2018-08-30T22:53:32.546Z,15.30
2018-08-30T22:58:35.897Z,11.87
2018-08-30T23:03:39.332Z,11.47
2018-08-30T23:08:42.916Z,12.40
2018-08-30T23:13:46.242Z,9.93
2018-08-30T23:18:49.701Z,12.97
2018-08-30T23:23:54.101Z,12.40
2018-08-30T23:28:57.484Z,8.37
2018-08-30T23:34:01.481Z,8.37
2018-08-30T23:39:07.664Z,12.80
2018-08-30T23:44:11.296Z,7.87
2018-08-30T23:49:14.729Z,8.77
2018-08-30T23:54:18.245Z,9.58
2018-08-30T23:59:32.700Z,9.47
